createdAt,value
2022-12-03T00:00:18.861Z,85.16
2022-12-03T00:02:45.463Z,85.29
2022-12-03T00:05:11.907Z,85.50
2022-12-03T00:07:38.343Z,85.07
2022-12-03T00:10:06.190Z,85.25
2022-12-03T00:12:32.550Z,85.43
2022-12-03T00:14:58.957Z,85.56
2022-12-03T00:17:25.358Z,85.78
2022-12-03T00:19:51.716Z,85.65
2022-12-03T00:22:18.324Z,85.96
2022-12-03T00:24:44.850Z,85.70
2022-12-03T00:27:13.440Z,85.79
2022-12-03T00:29:39.822Z,85.77
2022-12-03T00:32:06.283Z,86.14
2022-12-03T00:34:32.652Z,85.96
2022-12-03T00:36:59.016Z,85.99
2022-12-03T00:39:25.413Z,85.96
2022-12-03T00:41:51.754Z,85.78
2022-12-03T00:44:18.149Z,85.83
2022-12-03T00:46:44.657Z,85.94
2022-12-03T00:49:11.092Z,86.22
2022-12-03T00:51:39.835Z,85.60
2022-12-03T00:54:06.257Z,85.71
2022-12-03T00:56:32.760Z,85.73
2022-12-03T00:58:59.151Z,85.92
2022-12-03T01:01:25.607Z,85.67
2022-12-03T01:03:52.040Z,85.61
2022-12-03T01:06:18.541Z,85.47
2022-12-03T01:08:44.952Z,85.30
2022-12-03T01:11:31.318Z,85.74
2022-12-03T01:13:58.339Z,85.71
2022-12-03T01:16:24.767Z,86.06
2022-12-03T01:18:52.764Z,86.01
2022-12-03T01:21:19.749Z,85.78
2022-12-03T01:23:46.822Z,85.59
2022-12-03T01:26:13.237Z,85.49
2022-12-03T01:28:42.284Z,85.95
2022-12-03T01:31:29.489Z,85.37
2022-12-03T01:34:00.915Z,86.61
2022-12-03T01:36:27.341Z,85.88
2022-12-03T01:38:53.714Z,85.84
2022-12-03T01:41:22.631Z,85.92
2022-12-03T01:43:51.212Z,85.78
2022-12-03T01:46:24.714Z,85.80
2022-12-03T01:48:53.628Z,85.90
2022-12-03T01:51:20.035Z,85.92
2022-12-03T01:53:46.910Z,86.01
2022-12-03T01:56:15.589Z,86.04
2022-12-03T01:58:42.939Z,86.04
2022-12-03T02:01:15.152Z,85.90
2022-12-03T02:03:42.439Z,86.08
2022-12-03T02:06:16.103Z,85.87
2022-12-03T02:08:43.059Z,86.09
2022-12-03T02:11:17.741Z,86.04
2022-12-03T02:13:44.375Z,85.89
2022-12-03T02:16:10.986Z,85.57
2022-12-03T02:18:37.520Z,85.56
2022-12-03T02:21:13.164Z,85.56
2022-12-03T02:23:47.182Z,85.39
2022-12-03T02:26:13.672Z,85.10
2022-12-03T02:28:40.138Z,84.79
2022-12-03T02:31:07.141Z,85.20
2022-12-03T02:33:33.684Z,84.77
2022-12-03T02:36:03.508Z,84.92
2022-12-03T02:38:34.082Z,85.12
2022-12-03T02:41:04.806Z,85.03
2022-12-03T02:43:31.424Z,85.29
2022-12-03T02:46:01.527Z,84.92
2022-12-03T02:48:36.940Z,84.77
2022-12-03T02:51:07.200Z,84.75
2022-12-03T02:53:42.179Z,84.65
2022-12-03T02:56:10.149Z,84.70
2022-12-03T02:58:36.888Z,84.46
2022-12-03T03:01:04.942Z,84.77
2022-12-03T03:03:32.732Z,84.22
2022-12-03T03:06:02.529Z,84.05
2022-12-03T03:08:30.068Z,84.21
2022-12-03T03:10:59.664Z,84.21
2022-12-03T03:13:26.227Z,83.83
2022-12-03T03:15:52.793Z,83.61
2022-12-03T03:18:19.276Z,83.84
2022-12-03T03:20:45.790Z,84.00
2022-12-03T03:23:12.529Z,84.02
2022-12-03T03:25:40.916Z,84.21
2022-12-03T03:28:08.330Z,83.49
2022-12-03T03:30:36.101Z,83.47
2022-12-03T03:33:02.559Z,83.78
2022-12-03T03:35:28.996Z,83.77
2022-12-03T03:37:58.544Z,83.61
2022-12-03T03:40:26.157Z,83.77
2022-12-03T03:42:52.936Z,83.99
2022-12-03T03:45:22.717Z,84.17
2022-12-03T03:47:54.712Z,84.29
2022-12-03T03:50:21.413Z,84.08
2022-12-03T03:52:47.779Z,83.98
2022-12-03T03:55:14.510Z,84.20
2022-12-03T03:57:40.912Z,84.03
2022-12-03T04:00:08.712Z,84.41
2022-12-03T04:02:36.426Z,84.31
2022-12-03T04:05:02.874Z,84.01
2022-12-03T04:07:29.276Z,83.87
2022-12-03T04:09:55.697Z,83.66
2022-12-03T04:12:40.354Z,84.02
2022-12-03T04:15:07.997Z,83.85
2022-12-03T04:17:34.380Z,83.61
2022-12-03T04:20:00.742Z,84.06
2022-12-03T04:22:42.249Z,83.91
2022-12-03T04:25:29.298Z,83.61
2022-12-03T04:28:14.106Z,83.58
2022-12-03T04:30:40.531Z,83.51
2022-12-03T04:33:25.597Z,83.29
2022-12-03T04:35:52.768Z,83.30
2022-12-03T04:38:19.196Z,83.59
2022-12-03T04:41:00.826Z,83.08
2022-12-03T04:43:28.440Z,83.47
2022-12-03T04:45:54.964Z,83.45
2022-12-03T04:48:21.387Z,83.41
2022-12-03T04:50:48.030Z,83.58
2022-12-03T04:53:14.392Z,83.86
2022-12-03T04:55:40.802Z,83.80
2022-12-03T04:58:07.228Z,83.76
2022-12-03T05:00:33.567Z,84.01
2022-12-03T05:03:00.062Z,83.33
2022-12-03T05:05:26.528Z,83.58
2022-12-03T05:07:52.917Z,83.71
2022-12-03T05:10:19.356Z,83.60
2022-12-03T05:12:45.710Z,83.77
2022-12-03T05:15:12.060Z,83.76
2022-12-03T05:17:38.447Z,83.69
2022-12-03T05:20:23.551Z,83.59
2022-12-03T05:22:49.969Z,83.64
2022-12-03T05:25:16.403Z,83.41
2022-12-03T05:27:42.747Z,83.53
2022-12-03T05:30:09.689Z,83.49
2022-12-03T05:32:36.180Z,83.84
2022-12-03T05:35:02.555Z,83.74
2022-12-03T05:37:29.074Z,84.00
2022-12-03T05:39:55.415Z,84.32
2022-12-03T05:42:40.516Z,84.13
2022-12-03T05:45:07.399Z,83.87
2022-12-03T05:47:33.751Z,84.89
2022-12-03T05:50:00.189Z,84.33
2022-12-03T05:52:26.611Z,83.99
2022-12-03T05:54:53.195Z,84.63
2022-12-03T05:57:19.792Z,84.56
2022-12-03T05:59:46.127Z,83.96
2022-12-03T06:02:12.530Z,84.32
2022-12-03T06:04:39.164Z,84.23
2022-12-03T06:07:09.624Z,84.25
2022-12-03T06:09:39.014Z,84.30
2022-12-03T06:12:06.793Z,84.04
2022-12-03T06:14:34.654Z,84.16
2022-12-03T06:17:01.488Z,84.35
2022-12-03T06:19:27.952Z,83.99
2022-12-03T06:21:54.374Z,84.11
2022-12-03T06:24:20.806Z,84.25
2022-12-03T06:26:47.201Z,84.16
2022-12-03T06:29:13.614Z,84.07
2022-12-03T06:31:40.036Z,84.03
2022-12-03T06:34:06.490Z,84.31
2022-12-03T06:36:32.855Z,84.23
2022-12-03T06:38:59.249Z,84.56
2022-12-03T06:41:25.639Z,84.79
2022-12-03T06:43:52.075Z,84.71
2022-12-03T06:46:18.558Z,84.67
2022-12-03T06:48:44.962Z,84.76
2022-12-03T06:51:11.310Z,84.86
2022-12-03T06:53:37.729Z,85.02
2022-12-03T06:56:04.316Z,84.72
2022-12-03T06:58:30.670Z,84.88
2022-12-03T07:00:57.045Z,84.91
2022-12-03T07:03:23.569Z,84.57
2022-12-03T07:05:50.008Z,84.80
2022-12-03T07:08:16.541Z,85.07
2022-12-03T07:10:42.968Z,84.92
2022-12-03T07:13:09.465Z,84.77
2022-12-03T07:15:35.842Z,84.48
2022-12-03T07:18:02.205Z,84.85
2022-12-03T07:20:28.657Z,84.96
2022-12-03T07:22:55.289Z,85.14
2022-12-03T07:25:23.722Z,84.87
2022-12-03T07:27:50.359Z,85.22
2022-12-03T07:30:17.069Z,85.11
2022-12-03T07:32:43.425Z,84.71
2022-12-03T07:35:09.851Z,84.32
2022-12-03T07:37:36.717Z,84.83
2022-12-03T07:40:04.899Z,84.40
2022-12-03T07:42:31.303Z,84.73
2022-12-03T07:44:57.711Z,84.37
2022-12-03T07:47:24.077Z,84.61
2022-12-03T07:49:50.431Z,84.35
2022-12-03T07:52:16.854Z,84.12
2022-12-03T07:54:43.196Z,83.96
2022-12-03T07:57:09.559Z,84.06
2022-12-03T07:59:35.916Z,84.56
2022-12-03T08:02:02.652Z,84.40
2022-12-03T08:04:29.154Z,84.11
2022-12-03T08:06:55.649Z,84.37
2022-12-03T08:09:22.434Z,84.16
2022-12-03T08:11:49.525Z,84.30
2022-12-03T08:14:19.021Z,84.30
2022-12-03T08:16:47.419Z,84.10
2022-12-03T08:19:15.872Z,84.03
2022-12-03T08:21:42.684Z,83.83
2022-12-03T08:24:20.518Z,83.75
2022-12-03T08:26:48.858Z,83.59
2022-12-03T08:29:17.952Z,83.49
2022-12-03T08:31:55.306Z,83.58
2022-12-03T08:34:26.367Z,84.83
2022-12-03T08:36:59.347Z,82.91
2022-12-03T08:39:37.604Z,82.64
2022-12-03T08:42:41.502Z,82.56
2022-12-03T08:45:29.120Z,82.51
2022-12-03T08:47:57.095Z,83.29
2022-12-03T08:50:29.160Z,82.85
2022-12-03T08:53:06.443Z,82.83
2022-12-03T08:55:45.437Z,83.15
2022-12-03T08:58:42.488Z,83.38
2022-12-03T09:01:08.930Z,83.74
2022-12-03T09:03:35.675Z,83.81
2022-12-03T09:06:02.064Z,83.73
2022-12-03T09:08:28.650Z,83.74
2022-12-03T09:10:55.141Z,83.74
2022-12-03T09:13:21.539Z,83.13
2022-12-03T09:15:48.024Z,83.21
2022-12-03T09:18:14.571Z,83.23
2022-12-03T09:20:41.245Z,82.57
2022-12-03T09:23:07.628Z,82.84
2022-12-03T09:25:34.237Z,83.09
2022-12-03T09:28:00.688Z,83.53
2022-12-03T09:30:27.032Z,83.41
2022-12-03T09:32:53.370Z,83.10
2022-12-03T09:35:19.744Z,83.50
2022-12-03T09:37:46.134Z,83.75
2022-12-03T09:40:13.138Z,83.88
2022-12-03T09:42:39.777Z,83.88
2022-12-03T09:45:12.479Z,84.09
2022-12-03T09:47:42.376Z,83.84
2022-12-03T09:50:12.820Z,83.97
2022-12-03T09:52:39.170Z,83.82
2022-12-03T09:55:13.711Z,83.98
2022-12-03T09:57:40.085Z,83.76
2022-12-03T10:00:16.424Z,84.08
2022-12-03T10:02:43.039Z,83.60
2022-12-03T10:05:09.763Z,82.99
2022-12-03T10:07:36.920Z,82.94
2022-12-03T10:10:04.129Z,83.03
2022-12-03T10:12:30.566Z,83.26
2022-12-03T10:14:57.161Z,83.18
2022-12-03T10:17:23.557Z,83.44
2022-12-03T10:19:50.085Z,83.33
2022-12-03T10:22:16.738Z,84.05
2022-12-03T10:24:44.695Z,82.72
2022-12-03T10:27:22.437Z,81.90
2022-12-03T10:29:59.871Z,82.21
2022-12-03T10:32:42.067Z,82.20
2022-12-03T10:35:19.253Z,81.99
2022-12-03T10:38:02.673Z,82.97
2022-12-03T10:40:32.200Z,83.10
2022-12-03T10:43:20.251Z,83.39
2022-12-03T10:46:07.887Z,83.22
2022-12-03T10:48:34.319Z,83.43
2022-12-03T10:51:10.083Z,83.46
2022-12-03T10:53:51.571Z,83.36
2022-12-03T10:56:24.749Z,83.15
2022-12-03T10:58:51.167Z,83.14
2022-12-03T11:01:21.191Z,83.10
2022-12-03T11:03:48.461Z,82.73
2022-12-03T11:06:17.873Z,84.17
2022-12-03T11:08:51.519Z,83.24
2022-12-03T11:11:25.664Z,83.04
2022-12-03T11:14:00.533Z,82.88
2022-12-03T11:16:39.152Z,82.49
2022-12-03T11:19:38.697Z,82.86
2022-12-03T11:22:05.135Z,82.98
2022-12-03T11:24:33.344Z,82.93
2022-12-03T11:27:00.288Z,82.95
2022-12-03T11:29:50.267Z,82.93
2022-12-03T11:32:38.580Z,83.04
2022-12-03T11:35:24.140Z,83.30
2022-12-03T11:37:50.580Z,82.86
2022-12-03T11:40:17.073Z,82.07
2022-12-03T11:42:45.259Z,82.41
2022-12-03T11:45:28.462Z,82.21
2022-12-03T11:47:57.920Z,82.25
2022-12-03T11:50:37.584Z,82.53
2022-12-03T11:53:26.715Z,81.58
2022-12-03T11:56:08.318Z,81.80
2022-12-03T11:58:38.247Z,81.01
2022-12-03T12:01:05.623Z,81.50
2022-12-03T12:03:34.921Z,80.94
2022-12-03T12:06:07.295Z,81.40
2022-12-03T12:08:36.087Z,81.27
2022-12-03T12:11:03.113Z,81.48
2022-12-03T12:13:32.200Z,81.32
2022-12-03T12:16:00.414Z,81.25
2022-12-03T12:18:40.609Z,80.51
2022-12-03T12:21:44.557Z,81.00
2022-12-03T12:24:36.159Z,81.12
2022-12-03T12:27:09.739Z,80.73
2022-12-03T12:29:37.832Z,80.30
2022-12-03T12:32:13.104Z,81.59
2022-12-03T12:34:44.599Z,81.94
2022-12-03T12:37:15.881Z,82.42
2022-12-03T12:39:42.310Z,82.46
2022-12-03T12:42:37.416Z,83.07
2022-12-03T12:45:16.537Z,82.95
2022-12-03T12:48:01.516Z,83.04
2022-12-03T12:50:27.985Z,83.07
2022-12-03T12:53:01.384Z,83.59
2022-12-03T12:55:27.919Z,83.59
2022-12-03T12:58:00.184Z,83.43
2022-12-03T13:00:26.690Z,83.63
2022-12-03T13:03:04.572Z,83.36
2022-12-03T13:05:39.618Z,83.63
2022-12-03T13:08:28.606Z,83.37
2022-12-03T13:10:56.528Z,83.64
2022-12-03T13:13:44.234Z,83.70
2022-12-03T13:16:26.382Z,83.96
2022-12-03T13:18:57.293Z,83.97
2022-12-03T13:21:26.681Z,84.01
2022-12-03T13:23:55.840Z,84.33
2022-12-03T13:26:36.588Z,84.34
2022-12-03T13:29:18.235Z,84.54
2022-12-03T13:31:52.966Z,84.35
2022-12-03T13:34:24.848Z,84.42
2022-12-03T13:36:57.697Z,84.51
2022-12-03T13:39:34.241Z,85.20
2022-12-03T13:42:45.148Z,84.87
2022-12-03T13:45:14.621Z,84.94
2022-12-03T13:47:47.886Z,84.46
2022-12-03T13:50:38.592Z,84.52
2022-12-03T13:53:36.740Z,84.47
2022-12-03T13:56:03.045Z,84.79
2022-12-03T13:58:29.411Z,84.70
2022-12-03T14:00:55.802Z,84.86
2022-12-03T14:03:23.353Z,84.68
2022-12-03T14:05:49.789Z,83.84
2022-12-03T14:08:16.549Z,84.30
2022-12-03T14:10:43.013Z,84.34
2022-12-03T14:13:10.086Z,84.44
2022-12-03T14:15:36.463Z,85.15
2022-12-03T14:18:02.857Z,85.59
2022-12-03T14:20:29.293Z,84.25
2022-12-03T14:22:59.340Z,84.83
2022-12-03T14:25:26.287Z,84.43
2022-12-03T14:27:52.664Z,84.77
2022-12-03T14:30:19.021Z,85.07
2022-12-03T14:32:45.385Z,85.18
2022-12-03T14:35:11.732Z,85.18
2022-12-03T14:37:38.171Z,84.77
2022-12-03T14:40:07.022Z,85.21
2022-12-03T14:42:33.506Z,85.25
2022-12-03T14:44:59.905Z,85.39
2022-12-03T14:47:26.286Z,84.87
2022-12-03T14:49:53.141Z,85.02
2022-12-03T14:52:20.232Z,85.15
2022-12-03T14:54:46.627Z,85.74
2022-12-03T14:57:14.459Z,85.77
2022-12-03T14:59:42.252Z,85.50
2022-12-03T15:02:10.229Z,85.68
2022-12-03T15:04:37.128Z,86.87
2022-12-03T15:07:04.161Z,86.18
2022-12-03T15:09:30.755Z,85.27
2022-12-03T15:11:57.256Z,85.38
2022-12-03T15:14:23.656Z,85.49
2022-12-03T15:16:50.101Z,85.48
2022-12-03T15:19:17.127Z,85.33
2022-12-03T15:21:43.520Z,85.51
2022-12-03T15:24:10.585Z,85.20
2022-12-03T15:26:37.266Z,84.98
2022-12-03T15:29:03.673Z,85.28
2022-12-03T15:31:30.123Z,85.28
2022-12-03T15:33:56.521Z,85.31
2022-12-03T15:36:23.016Z,85.41
2022-12-03T15:38:49.384Z,85.74
2022-12-03T15:41:23.279Z,85.26
2022-12-03T15:43:51.393Z,85.21
2022-12-03T15:46:17.820Z,85.51
2022-12-03T15:48:44.304Z,85.55
2022-12-03T15:51:10.745Z,85.36
2022-12-03T15:53:37.360Z,85.77
2022-12-03T15:56:03.947Z,84.93
2022-12-03T15:58:30.291Z,85.23
2022-12-03T16:00:56.836Z,85.34
2022-12-03T16:03:23.329Z,85.33
2022-12-03T16:05:49.909Z,85.34
2022-12-03T16:08:16.332Z,85.83
2022-12-03T16:10:42.692Z,85.66
2022-12-03T16:13:09.070Z,85.61
2022-12-03T16:15:35.530Z,85.60
2022-12-03T16:18:01.989Z,85.43
2022-12-03T16:20:28.356Z,85.41
2022-12-03T16:22:54.780Z,85.56
2022-12-03T16:25:21.140Z,85.56
2022-12-03T16:27:47.554Z,85.59
2022-12-03T16:30:14.312Z,85.61
2022-12-03T16:32:40.721Z,85.53
2022-12-03T16:35:07.427Z,85.52
2022-12-03T16:37:33.794Z,85.64
2022-12-03T16:40:00.166Z,85.58
2022-12-03T16:42:27.273Z,85.12
2022-12-03T16:44:59.277Z,85.19
2022-12-03T16:47:29.413Z,85.08
2022-12-03T16:50:00.811Z,84.92
2022-12-03T16:52:27.233Z,85.06
2022-12-03T16:54:53.599Z,85.25
2022-12-03T16:57:20.047Z,85.17
2022-12-03T16:59:46.392Z,85.14
2022-12-03T17:02:13.659Z,85.24
2022-12-03T17:04:40.207Z,85.20
2022-12-03T17:07:06.573Z,85.43
2022-12-03T17:09:32.931Z,85.16
2022-12-03T17:11:59.314Z,85.27
2022-12-03T17:14:31.446Z,85.21
2022-12-03T17:16:59.560Z,85.46
2022-12-03T17:19:26.130Z,85.53
2022-12-03T17:21:53.951Z,85.40
2022-12-03T17:24:21.329Z,85.50
2022-12-03T17:26:47.809Z,85.26
2022-12-03T17:29:14.304Z,85.33
2022-12-03T17:31:42.452Z,85.02
2022-12-03T17:34:09.438Z,85.15
2022-12-03T17:36:35.836Z,85.26
2022-12-03T17:39:02.325Z,85.30
2022-12-03T17:41:29.286Z,85.19
2022-12-03T17:43:55.703Z,85.10
2022-12-03T17:46:22.104Z,85.04
2022-12-03T17:48:48.568Z,85.38
2022-12-03T17:51:15.652Z,85.44
2022-12-03T17:53:42.015Z,85.36
2022-12-03T17:56:08.349Z,85.27
2022-12-03T17:58:34.721Z,85.12
2022-12-03T18:01:03.133Z,85.66
2022-12-03T18:03:30.121Z,85.39
2022-12-03T18:05:56.617Z,85.38
2022-12-03T18:08:23.196Z,85.12
2022-12-03T18:10:49.703Z,85.24
2022-12-03T18:13:16.123Z,85.13
2022-12-03T18:15:42.585Z,85.24
2022-12-03T18:18:08.985Z,85.42
2022-12-03T18:20:35.857Z,85.12
2022-12-03T18:23:02.520Z,85.23
2022-12-03T18:25:29.652Z,85.23
2022-12-03T18:27:56.465Z,85.26
2022-12-03T18:30:23.109Z,85.39
2022-12-03T18:32:50.589Z,85.35
2022-12-03T18:35:17.946Z,85.00
2022-12-03T18:37:44.368Z,85.81
2022-12-03T18:40:18.117Z,85.15
2022-12-03T18:42:44.623Z,86.30
2022-12-03T18:45:12.833Z,85.14
2022-12-03T18:47:39.273Z,84.94
2022-12-03T18:50:07.401Z,84.51
2022-12-03T18:52:33.886Z,84.67
2022-12-03T18:55:00.260Z,84.84
2022-12-03T18:57:26.638Z,84.74
2022-12-03T18:59:53.409Z,84.72
2022-12-03T19:03:01.924Z,84.68
2022-12-03T19:05:10.187Z,84.95
2022-12-03T19:07:36.948Z,85.14
2022-12-03T19:10:04.052Z,84.45
2022-12-03T19:12:31.110Z,84.52
2022-12-03T19:14:57.477Z,84.60
2022-12-03T19:17:23.846Z,84.79
2022-12-03T19:19:50.214Z,85.26
2022-12-03T19:22:16.562Z,84.60
2022-12-03T19:24:43.649Z,84.38
2022-12-03T19:27:10.089Z,84.36
2022-12-03T19:29:36.457Z,84.67
2022-12-03T19:32:02.907Z,84.38
2022-12-03T19:34:29.913Z,84.61
2022-12-03T19:36:56.532Z,84.65
2022-12-03T19:39:22.959Z,84.75
2022-12-03T19:41:49.530Z,84.58
2022-12-03T19:44:18.019Z,84.82
2022-12-03T19:46:45.159Z,84.47
2022-12-03T19:49:12.121Z,84.58
2022-12-03T19:51:38.539Z,84.81
2022-12-03T19:54:06.507Z,84.66
2022-12-03T19:56:34.027Z,84.65
2022-12-03T19:59:00.479Z,84.82
2022-12-03T20:01:29.273Z,84.65
2022-12-03T20:03:57.646Z,84.71
2022-12-03T20:06:27.500Z,84.66
2022-12-03T20:08:58.216Z,85.16
2022-12-03T20:11:27.296Z,85.14
2022-12-03T20:13:56.127Z,84.97
2022-12-03T20:16:23.276Z,84.88
2022-12-03T20:18:50.165Z,84.87
2022-12-03T20:21:18.886Z,84.47
2022-12-03T20:23:45.911Z,84.74
2022-12-03T20:26:15.397Z,84.62
2022-12-03T20:28:42.396Z,84.90
2022-12-03T20:31:14.523Z,84.85
2022-12-03T20:33:43.355Z,84.56
2022-12-03T20:36:11.051Z,84.93
2022-12-03T20:38:37.826Z,84.87
2022-12-03T20:41:06.941Z,84.97
2022-12-03T20:43:34.094Z,84.91
2022-12-03T20:46:07.818Z,84.74
2022-12-03T20:48:34.793Z,84.81
2022-12-03T20:51:06.860Z,84.70
2022-12-03T20:53:33.493Z,84.96
2022-12-03T20:56:01.593Z,84.62
2022-12-03T20:58:29.166Z,84.39
2022-12-03T21:00:55.871Z,84.52
2022-12-03T21:03:22.493Z,84.95
2022-12-03T21:05:49.436Z,84.60
2022-12-03T21:08:15.924Z,84.99
2022-12-03T21:10:45.891Z,85.49
2022-12-03T21:13:16.113Z,85.38
2022-12-03T21:15:42.807Z,84.98
2022-12-03T21:18:11.988Z,85.10
2022-12-03T21:20:43.251Z,85.38
2022-12-03T21:23:09.823Z,85.34
2022-12-03T21:25:37.452Z,85.00
2022-12-03T21:28:06.634Z,85.14
2022-12-03T21:30:33.232Z,85.13
2022-12-03T21:32:59.838Z,85.39
2022-12-03T21:35:26.191Z,85.33
2022-12-03T21:37:52.876Z,85.47
2022-12-03T21:40:19.872Z,85.34
2022-12-03T21:42:46.282Z,85.47
2022-12-03T21:45:13.093Z,85.40
2022-12-03T21:47:39.661Z,85.69
2022-12-03T21:50:07.942Z,85.67
2022-12-03T21:52:35.173Z,85.71
2022-12-03T21:55:01.586Z,85.77
2022-12-03T21:57:27.958Z,85.67
2022-12-03T21:59:55.510Z,85.81
2022-12-03T22:02:22.424Z,85.65
2022-12-03T22:04:50.218Z,85.90
2022-12-03T22:07:16.677Z,86.11
2022-12-03T22:09:43.066Z,86.06
2022-12-03T22:12:09.448Z,86.05
2022-12-03T22:14:35.874Z,86.14
2022-12-03T22:17:02.238Z,86.25
2022-12-03T22:19:28.713Z,86.08
2022-12-03T22:21:55.085Z,86.01
2022-12-03T22:24:21.533Z,86.34
2022-12-03T22:26:47.926Z,86.34
2022-12-03T22:29:14.834Z,86.35
2022-12-03T22:31:41.184Z,86.27
2022-12-03T22:34:07.608Z,86.40
2022-12-03T22:36:34.005Z,86.11
2022-12-03T22:39:00.353Z,86.32
2022-12-03T22:41:26.709Z,86.22
2022-12-03T22:43:53.215Z,86.41
2022-12-03T22:46:19.843Z,86.46
2022-12-03T22:48:46.667Z,86.66
2022-12-03T22:51:21.796Z,86.51
2022-12-03T22:53:53.069Z,86.58
2022-12-03T22:56:19.429Z,86.93
2022-12-03T22:58:45.992Z,87.10
2022-12-03T23:01:29.143Z,87.11
2022-12-03T23:03:56.231Z,86.77
2022-12-03T23:06:23.563Z,86.76
2022-12-03T23:08:50.817Z,86.92
2022-12-03T23:11:18.414Z,87.07
2022-12-03T23:13:44.787Z,87.33
2022-12-03T23:16:17.898Z,87.26
2022-12-03T23:18:44.686Z,87.48
2022-12-03T23:21:16.423Z,86.76
2022-12-03T23:23:42.997Z,87.24
2022-12-03T23:26:11.468Z,87.26
2022-12-03T23:28:40.944Z,87.29
2022-12-03T23:31:19.459Z,87.40
2022-12-03T23:33:46.731Z,87.47
2022-12-03T23:36:13.865Z,87.15
2022-12-03T23:38:41.067Z,87.27
2022-12-03T23:41:11.016Z,87.19
2022-12-03T23:43:38.306Z,87.54
2022-12-03T23:46:10.828Z,87.29
2022-12-03T23:48:37.408Z,87.45
2022-12-03T23:51:12.542Z,87.05
2022-12-03T23:53:40.230Z,87.24
2022-12-03T23:56:12.878Z,87.30
2022-12-03T23:58:39.499Z,87.51
